createdAt,value
2023-01-06T00:03:30.834Z,11.06
2023-01-06T00:08:34.194Z,11.13
2023-01-06T00:13:35.712Z,11.01
2023-01-06T00:18:37.651Z,11.06
2023-01-06T00:23:41.020Z,11.03
2023-01-06T00:28:43.852Z,10.99
2023-01-06T00:33:45.241Z,11.03
2023-01-06T00:38:48.938Z,11.05
2023-01-06T00:43:51.766Z,11.06
2023-01-06T00:49:04.634Z,11.13
2023-01-06T00:54:11.463Z,11.17
2023-01-06T00:59:17.260Z,11.23
2023-01-06T01:04:19.140Z,11.25
2023-01-06T01:09:23.682Z,11.21
2023-01-06T01:14:25.225Z,11.18
2023-01-06T01:19:28.831Z,11.11
2023-01-06T01:24:30.529Z,11.12
2023-01-06T01:29:33.515Z,11.12
2023-01-06T01:34:35.097Z,11.17
2023-01-06T01:39:36.991Z,11.20
2023-01-06T01:45:01.951Z,11.16
2023-01-06T01:50:10.661Z,11.20
2023-01-06T01:55:14.119Z,11.06
2023-01-06T02:00:15.803Z,11.10
2023-01-06T02:05:21.970Z,11.02
2023-01-06T02:10:27.243Z,11.06
2023-01-06T02:15:33.128Z,11.13
2023-01-06T02:20:55.496Z,11.10
2023-01-06T02:26:24.431Z,11.16
2023-01-06T02:31:40.975Z,11.18
2023-01-06T02:37:24.093Z,11.25
2023-01-06T02:42:46.893Z,11.30
2023-01-06T02:48:22.253Z,11.18
2023-01-06T02:53:42.058Z,11.18
2023-01-06T02:58:59.375Z,11.18
2023-01-06T03:04:05.596Z,11.20
2023-01-06T03:09:07.175Z,11.16
2023-01-06T03:14:24.935Z,11.17
2023-01-06T03:19:29.176Z,11.20
2023-01-06T03:24:30.565Z,11.23
2023-01-06T03:29:32.434Z,11.28
2023-01-06T03:34:39.674Z,11.31
2023-01-06T03:40:05.027Z,11.25
2023-01-06T03:45:35.370Z,11.29
2023-01-06T03:50:43.054Z,11.29
2023-01-06T03:55:56.930Z,11.21
2023-01-06T04:00:59.306Z,11.25
2023-01-06T04:06:00.811Z,11.18
2023-01-06T04:11:02.215Z,11.21
2023-01-06T04:16:04.065Z,11.19
2023-01-06T04:21:05.665Z,11.10
2023-01-06T04:26:08.860Z,11.04
2023-01-06T04:31:11.703Z,10.98
2023-01-06T04:36:13.546Z,10.96
2023-01-06T04:41:15.136Z,10.99
2023-01-06T04:46:16.551Z,10.98
2023-01-06T04:51:17.856Z,11.00
2023-01-06T04:56:19.376Z,11.00
2023-01-06T05:01:20.959Z,10.95
2023-01-06T05:06:22.481Z,10.98
2023-01-06T05:11:25.450Z,10.94
2023-01-06T05:16:29.996Z,10.96
2023-01-06T05:21:32.823Z,11.03
2023-01-06T05:26:34.916Z,10.96
2023-01-06T05:31:36.484Z,10.95
2023-01-06T05:36:39.633Z,10.96
2023-01-06T05:41:41.503Z,10.96
2023-01-06T05:46:43.085Z,11.00
2023-01-06T05:51:44.533Z,11.01
2023-01-06T05:56:46.379Z,11.04
2023-01-06T06:01:47.940Z,11.10
2023-01-06T06:06:49.526Z,11.13
2023-01-06T06:11:52.850Z,11.11
2023-01-06T06:16:55.500Z,11.11
2023-01-06T06:21:57.028Z,11.04
2023-01-06T06:26:58.505Z,10.95
2023-01-06T06:32:00.073Z,10.97
2023-01-06T06:37:02.046Z,10.96
2023-01-06T06:42:04.754Z,10.97
2023-01-06T06:47:06.232Z,10.91
2023-01-06T06:52:09.608Z,10.93
2023-01-06T06:57:11.280Z,10.93
2023-01-06T07:02:12.926Z,10.89
2023-01-06T07:07:15.759Z,10.81
2023-01-06T07:12:17.493Z,10.85
2023-01-06T07:17:18.898Z,10.80
2023-01-06T07:22:20.739Z,10.78
2023-01-06T07:27:22.175Z,10.82
2023-01-06T07:32:26.057Z,10.88
2023-01-06T07:37:27.690Z,10.78
2023-01-06T07:42:30.209Z,10.78
2023-01-06T07:47:31.624Z,10.75
2023-01-06T07:52:33.078Z,10.69
2023-01-06T07:57:38.377Z,10.68
2023-01-06T08:02:39.960Z,10.75
2023-01-06T08:07:43.204Z,10.76
2023-01-06T08:12:44.971Z,10.77
2023-01-06T08:17:46.349Z,10.87
2023-01-06T08:22:47.841Z,10.86
2023-01-06T08:27:49.215Z,10.89
2023-01-06T08:32:50.628Z,10.86
2023-01-06T08:37:52.274Z,10.87
2023-01-06T08:42:53.832Z,10.91
2023-01-06T08:47:55.432Z,10.84
2023-01-06T08:52:56.854Z,10.91
2023-01-06T08:57:58.227Z,10.95
2023-01-06T09:02:59.674Z,11.03
2023-01-06T09:08:01.487Z,10.92
2023-01-06T09:13:02.985Z,10.90
2023-01-06T09:18:06.585Z,11.00
2023-01-06T09:23:08.076Z,10.90
2023-01-06T09:28:10.617Z,10.87
2023-01-06T09:33:12.127Z,10.92
2023-01-06T09:38:14.511Z,10.89
2023-01-06T09:43:52.697Z,10.95
2023-01-06T09:49:02.167Z,10.95
2023-01-06T09:54:12.564Z,11.03
2023-01-06T09:59:30.381Z,11.09
2023-01-06T10:04:31.978Z,11.10
2023-01-06T10:09:43.095Z,11.16
2023-01-06T10:15:09.886Z,11.18
2023-01-06T10:20:46.304Z,11.12
2023-01-06T10:25:55.774Z,11.17
2023-01-06T10:31:08.208Z,11.24
2023-01-06T10:36:18.090Z,11.35
2023-01-06T10:41:30.996Z,11.42
2023-01-06T10:46:39.347Z,11.40
2023-01-06T10:51:51.563Z,11.34
2023-01-06T10:57:09.981Z,11.39
2023-01-06T11:02:23.617Z,11.40
2023-01-06T11:07:25.827Z,11.38
2023-01-06T11:12:29.668Z,11.51
2023-01-06T11:17:31.678Z,11.64
2023-01-06T11:22:37.997Z,11.68
2023-01-06T11:27:39.792Z,11.80
2023-01-06T11:32:42.304Z,11.89
2023-01-06T11:37:43.937Z,11.79
2023-01-06T11:42:51.760Z,11.74
2023-01-06T11:47:53.232Z,11.60
2023-01-06T11:53:04.131Z,11.60
2023-01-06T11:58:17.289Z,11.77
2023-01-06T12:03:41.637Z,11.78
2023-01-06T12:08:56.854Z,11.68
2023-01-06T12:14:27.337Z,11.81
2023-01-06T12:19:56.521Z,11.87
2023-01-06T12:24:59.417Z,11.86
2023-01-06T12:30:06.229Z,11.86
2023-01-06T12:35:13.991Z,12.02
2023-01-06T12:40:40.050Z,12.21
2023-01-06T12:45:59.664Z,12.48
2023-01-06T12:51:18.478Z,12.87
2023-01-06T12:56:25.254Z,12.43
2023-01-06T13:02:04.840Z,12.20
2023-01-06T13:07:50.895Z,12.16
2023-01-06T13:13:11.800Z,12.09
2023-01-06T13:18:46.548Z,11.96
2023-01-06T13:24:15.886Z,11.93
2023-01-06T13:29:44.053Z,11.82
2023-01-06T13:35:10.043Z,11.88
2023-01-06T13:40:19.198Z,11.87
2023-01-06T13:45:28.611Z,11.92
2023-01-06T13:50:31.337Z,11.95
2023-01-06T13:55:40.631Z,12.01
2023-01-06T14:00:43.077Z,12.08
2023-01-06T14:05:46.943Z,12.09
2023-01-06T14:10:54.881Z,12.03
2023-01-06T14:16:04.773Z,11.99
2023-01-06T14:21:29.032Z,11.93
2023-01-06T14:26:52.295Z,11.84
2023-01-06T14:31:53.702Z,11.81
2023-01-06T14:36:57.071Z,11.81
2023-01-06T14:42:07.088Z,11.86
2023-01-06T14:47:21.865Z,11.78
2023-01-06T14:52:33.274Z,11.75
2023-01-06T14:57:40.015Z,11.79
2023-01-06T15:03:21.688Z,11.82
2023-01-06T15:08:25.565Z,11.75
2023-01-06T15:13:26.916Z,11.68
2023-01-06T15:18:28.437Z,11.66
2023-01-06T15:23:31.030Z,11.59
2023-01-06T15:28:34.624Z,11.61
2023-01-06T15:33:40.241Z,11.58
2023-01-06T15:38:41.988Z,11.64
2023-01-06T15:43:45.865Z,11.62
2023-01-06T15:48:48.903Z,11.65
2023-01-06T15:53:56.419Z,11.60
2023-01-06T15:58:59.242Z,11.55
2023-01-06T16:04:02.722Z,11.53
2023-01-06T16:09:30.875Z,11.54
2023-01-06T16:14:37.724Z,11.52
2023-01-06T16:19:48.957Z,11.49
2023-01-06T16:24:51.525Z,11.45
2023-01-06T16:30:14.732Z,11.42
2023-01-06T16:35:18.944Z,11.43
2023-01-06T16:40:24.924Z,11.38
2023-01-06T16:45:32.689Z,11.40
2023-01-06T16:50:38.550Z,11.27
2023-01-06T16:55:41.150Z,11.33
2023-01-06T17:00:48.164Z,11.29
2023-01-06T17:05:52.526Z,11.26
2023-01-06T17:10:54.256Z,11.30
2023-01-06T17:16:05.043Z,11.24
2023-01-06T17:21:16.496Z,11.18
2023-01-06T17:26:20.675Z,11.19
2023-01-06T17:31:39.740Z,11.14
2023-01-06T17:36:44.117Z,11.17
2023-01-06T17:41:45.871Z,11.17
2023-01-06T17:46:48.171Z,11.05
2023-01-06T17:51:51.949Z,11.05
2023-01-06T17:56:53.935Z,11.07
2023-01-06T18:01:55.384Z,11.03
2023-01-06T18:06:56.808Z,11.01
2023-01-06T18:12:03.177Z,11.05
2023-01-06T18:17:16.267Z,11.01
2023-01-06T18:22:21.421Z,11.05
2023-01-06T18:27:26.029Z,11.12
2023-01-06T18:32:32.310Z,11.10
2023-01-06T18:37:35.604Z,11.04
2023-01-06T18:42:41.262Z,11.19
2023-01-06T18:47:44.116Z,11.15
2023-01-06T18:52:48.199Z,11.12
2023-01-06T18:57:55.607Z,11.21
2023-01-06T19:03:04.346Z,11.16
2023-01-06T19:08:18.249Z,11.11
2023-01-06T19:13:23.385Z,11.10
2023-01-06T19:18:29.325Z,11.04
2023-01-06T19:23:31.925Z,11.04
2023-01-06T19:28:35.140Z,11.01
2023-01-06T19:33:57.068Z,10.93
2023-01-06T19:39:14.453Z,10.96
2023-01-06T19:44:15.815Z,10.90
2023-01-06T19:49:22.857Z,10.95
2023-01-06T19:54:39.735Z,10.99
2023-01-06T19:59:41.082Z,10.95
2023-01-06T20:04:42.905Z,10.96
2023-01-06T20:09:44.529Z,10.87
2023-01-06T20:14:45.943Z,11.00
2023-01-06T20:19:47.324Z,11.03
2023-01-06T20:24:48.696Z,11.14
2023-01-06T20:29:52.737Z,11.22
2023-01-06T20:34:54.557Z,11.21
2023-01-06T20:39:55.889Z,11.22
2023-01-06T20:44:58.675Z,11.16
2023-01-06T20:50:00.306Z,11.09
2023-01-06T20:55:02.096Z,11.08
2023-01-06T21:00:07.074Z,11.10
2023-01-06T21:05:09.762Z,11.08
2023-01-06T21:10:11.225Z,11.03
2023-01-06T21:15:15.441Z,10.98
2023-01-06T21:20:16.874Z,11.02
2023-01-06T21:25:20.696Z,11.01
2023-01-06T21:30:22.629Z,10.93
2023-01-06T21:35:25.639Z,10.79
2023-01-06T21:40:27.081Z,10.72
2023-01-06T21:45:28.870Z,10.62
2023-01-06T21:50:32.445Z,10.62
2023-01-06T21:55:33.906Z,10.68
2023-01-06T22:00:35.460Z,10.75
2023-01-06T22:05:36.797Z,10.69
2023-01-06T22:10:41.287Z,10.69
2023-01-06T22:15:43.037Z,10.75
2023-01-06T22:20:44.866Z,10.82
2023-01-06T22:25:46.594Z,10.78
2023-01-06T22:30:48.290Z,10.81
2023-01-06T22:35:50.006Z,10.77
2023-01-06T22:40:51.849Z,10.67
2023-01-06T22:45:54.661Z,10.69
2023-01-06T22:51:04.141Z,10.69
2023-01-06T22:56:09.081Z,10.80
2023-01-06T23:01:10.595Z,10.85
2023-01-06T23:06:14.110Z,10.78
2023-01-06T23:11:19.115Z,10.87
2023-01-06T23:16:22.365Z,10.93
2023-01-06T23:21:26.183Z,10.75
2023-01-06T23:26:30.751Z,10.83
2023-01-06T23:31:36.303Z,10.86
2023-01-06T23:36:38.261Z,10.93
2023-01-06T23:41:40.213Z,10.87
2023-01-06T23:46:42.512Z,10.81
2023-01-06T23:51:46.120Z,10.74
2023-01-06T23:56:47.455Z,10.75
